Time;durP1;ratioP1;P1;durP2;ratioP2;P2;SDS_P1;SDS_P2;PMS_P1;PMS_P2;Temp;Humidity;BMP_temperature;BMP_pressure;BME280_temperature;BME280_humidity;BME280_pressure;Samples;Min_cycle;Max_cycle;Signal;HPM_P1;HPM_P2
2022/08/18 00:01:18;;;;;;;9.43;4.13;;;19.30;99.90;;;;;;5013658;28;20258;-83
2022/08/18 00:03:44;;;;;;;7.03;3.80;;;19.40;99.90;;;;;;4964133;28;20219;-83
2022/08/18 00:06:10;;;;;;;4.67;4.00;;;19.40;99.90;;;;;;4996013;28;20623;-83
2022/08/18 00:08:36;;;;;;;8.00;4.33;;;19.40;99.90;;;;;;4996437;28;20207;-83
2022/08/18 00:11:02;;;;;;;6.60;3.57;;;19.50;99.90;;;;;;4960255;28;20223;-83
2022/08/18 00:13:28;;;;;;;9.47;5.00;;;19.50;99.90;;;;;;4979697;28;20305;-83
2022/08/18 00:15:53;;;;;;;5.83;4.03;;;19.40;99.90;;;;;;4976744;28;20214;-83
2022/08/18 00:18:19;;;;;;;6.50;4.47;;;19.40;99.90;;;;;;4944573;28;20270;-83
2022/08/18 00:20:45;;;;;;;6.60;4.10;;;19.40;99.90;;;;;;4995147;28;20190;-83
2022/08/18 00:23:12;;;;;;;5.57;3.90;;;19.40;99.90;;;;;;4995633;28;20678;-84
2022/08/18 00:25:38;;;;;;;7.33;4.37;;;19.40;99.90;;;;;;4952083;28;20214;-83
2022/08/18 00:28:04;;;;;;;7.60;3.77;;;19.40;99.90;;;;;;4979375;28;20223;-84
2022/08/18 00:30:30;;;;;;;7.40;4.23;;;19.40;99.90;;;;;;4977878;28;20219;-83
2022/08/18 00:32:57;;;;;;;5.93;4.00;;;19.50;99.90;;;;;;4982176;28;20183;-83
2022/08/18 00:35:27;;;;;;;7.20;4.40;;;19.50;99.90;;;;;;4975804;28;20223;-84
2022/08/18 00:37:54;;;;;;;6.00;4.70;;;19.40;99.90;;;;;;5013097;28;20683;-84
2022/08/18 00:40:24;;;;;;;6.10;3.87;;;19.40;99.90;;;;;;4995427;28;20804;-83
2022/08/18 00:42:56;;;;;;;12.67;4.77;;;19.40;99.90;;;;;;4991706;28;20222;-83
2022/08/18 00:45:29;;;;;;;8.97;4.83;;;19.40;99.90;;;;;;5025059;28;20218;-83
2022/08/18 00:47:55;;;;;;;6.37;4.37;;;19.40;99.90;;;;;;5011811;28;20202;-83
2022/08/18 00:50:39;;;;;;;14.97;3.60;;;19.40;99.90;;;;;;4979653;28;20175;-83
2022/08/18 00:53:10;;;;;;;6.70;4.17;;;19.40;99.90;;;;;;5003833;28;20624;-84
2022/08/18 00:55:39;;;;;;;10.13;3.63;;;19.40;99.90;;;;;;5008501;28;20719;-84
2022/08/18 00:58:10;;;;;;;9.23;3.37;;;19.40;99.90;;;;;;4991821;28;20211;-83
2022/08/18 01:00:37;;;;;;;6.53;3.60;;;19.40;99.90;;;;;;4992257;28;20215;-83
2022/08/18 01:03:07;;;;;;;6.07;3.50;;;19.40;99.90;;;;;;4992047;28;20176;-83
2022/08/18 01:05:39;;;;;;;5.03;3.87;;;19.50;99.90;;;;;;5000278;28;20541;-83
2022/08/18 01:08:10;;;;;;;6.87;3.50;;;19.50;99.90;;;;;;5003222;28;20231;-83
2022/08/18 01:10:38;;;;;;;5.93;3.40;;;19.50;99.90;;;;;;4988817;28;20219;-82
2022/08/18 01:13:04;;;;;;;4.57;3.20;;;19.60;99.90;;;;;;5011359;28;20298;-87
2022/08/18 01:15:31;;;;;;;7.87;4.07;;;19.50;99.90;;;;;;4995180;28;20247;-82
2022/08/18 01:23:34;;;;;;;4.90;3.40;;;19.50;99.90;;;;;;4993483;28;20197;-82
2022/08/18 01:26:01;;;;;;;13.13;3.73;;;19.50;99.90;;;;;;4981514;28;20218;-83
2022/08/18 01:28:33;;;;;;;5.40;3.87;;;19.50;99.90;;;;;;4988928;28;20588;-84
2022/08/18 01:30:59;;;;;;;9.37;3.80;;;19.50;99.90;;;;;;4999896;28;20212;-83
2022/08/18 01:33:31;;;;;;;6.63;4.10;;;19.50;99.90;;;;;;5005675;28;20305;-84
2022/08/18 01:36:06;;;;;;;10.07;4.40;;;19.50;99.90;;;;;;5015102;28;20197;-84
2022/08/18 01:38:32;;;;;;;8.40;4.00;;;19.60;99.90;;;;;;5012686;28;20187;-83
2022/08/18 01:40:59;;;;;;;14.57;4.03;;;19.70;99.90;;;;;;4998868;28;20691;-84
2022/08/18 01:43:25;;;;;;;8.30;3.67;;;19.70;99.90;;;;;;5003871;28;20317;-84
2022/08/18 01:45:51;;;;;;;7.27;3.40;;;19.70;99.90;;;;;;4998657;28;20582;-83
2022/08/18 01:48:17;;;;;;;7.53;3.93;;;19.70;99.90;;;;;;4982503;28;20277;-84
2022/08/18 01:50:44;;;;;;;6.33;3.97;;;19.70;99.90;;;;;;5016468;28;20180;-83
2022/08/18 01:53:10;;;;;;;10.43;3.73;;;19.80;99.90;;;;;;4950905;28;20207;-83
2022/08/18 01:55:38;;;;;;;3.83;3.10;;;19.80;99.90;;;;;;4979041;28;20759;-83
2022/08/18 01:58:06;;;;;;;3.77;2.83;;;19.70;99.90;;;;;;4994400;28;20219;-83
2022/08/18 02:00:33;;;;;;;6.93;3.80;;;19.70;99.90;;;;;;4979096;28;20729;-83
2022/08/18 02:03:00;;;;;;;3.67;2.53;;;19.60;99.90;;;;;;4986026;28;20184;-84
2022/08/18 02:05:39;;;;;;;7.87;3.57;;;19.60;99.90;;;;;;5004357;28;20176;-84
2022/08/18 02:08:05;;;;;;;3.53;3.07;;;19.60;99.90;;;;;;4998230;28;20296;-84
2022/08/18 02:10:31;;;;;;;4.17;2.90;;;19.60;99.90;;;;;;4981945;28;20683;-84
2022/08/18 02:12:57;;;;;;;5.33;3.23;;;19.60;99.90;;;;;;4982342;28;20334;-84
2022/08/18 02:15:23;;;;;;;8.20;2.83;;;19.70;99.90;;;;;;4982238;28;20218;-84
2022/08/18 02:17:49;;;;;;;7.33;3.53;;;19.70;99.90;;;;;;4999047;28;20176;-86
2022/08/18 02:20:16;;;;;;;4.80;3.30;;;19.70;99.90;;;;;;4965731;28;21075;-84
2022/08/18 02:22:43;;;;;;;2.80;2.30;;;19.70;99.90;;;;;;4990281;28;20208;-84
2022/08/18 02:25:10;;;;;;;8.33;3.43;;;19.70;99.90;;;;;;4973887;28;20223;-84
2022/08/18 02:27:36;;;;;;;4.93;3.70;;;19.70;99.90;;;;;;4978388;28;20278;-84
2022/08/18 02:30:06;;;;;;;3.63;3.17;;;19.70;99.90;;;;;;4991426;28;20180;-84
2022/08/18 02:32:32;;;;;;;9.20;3.00;;;19.70;99.90;;;;;;4998299;28;20207;-84
2022/08/18 02:34:58;;;;;;;3.03;2.70;;;19.60;99.90;;;;;;4965518;28;20243;-84
2022/08/18 02:37:23;;;;;;;6.70;3.00;;;19.60;99.90;;;;;;4979785;28;20212;-84
2022/08/18 02:39:49;;;;;;;10.23;3.40;;;19.60;99.90;;;;;;4997848;28;20277;-84
2022/08/18 02:42:15;;;;;;;3.07;2.77;;;19.60;99.90;;;;;;4981338;28;20204;-84
2022/08/18 02:44:41;;;;;;;4.87;3.17;;;19.60;99.90;;;;;;4970418;28;20263;-84
2022/08/18 02:47:06;;;;;;;5.30;3.03;;;19.60;99.90;;;;;;4994502;28;20224;-84
2022/08/18 02:49:32;;;;;;;7.50;3.60;;;19.50;99.90;;;;;;4994476;28;20212;-84
2022/08/18 02:51:58;;;;;;;4.00;2.93;;;19.50;99.90;;;;;;4981232;28;20269;-84
2022/08/18 02:54:24;;;;;;;7.17;3.40;;;19.40;99.90;;;;;;4983793;28;20215;-84
2022/08/18 02:56:51;;;;;;;4.93;2.63;;;19.40;99.90;;;;;;5008566;28;20274;-84
2022/08/18 02:59:21;;;;;;;6.80;2.87;;;19.40;99.90;;;;;;4983571;28;20307;-84
2022/08/18 03:01:50;;;;;;;4.73;2.00;;;19.40;99.90;;;;;;5000710;28;20214;-83
2022/08/18 03:04:19;;;;;;;6.63;2.77;;;19.40;99.90;;;;;;5013586;28;20222;-84
2022/08/18 03:06:45;;;;;;;3.90;2.60;;;19.40;99.90;;;;;;4999937;28;20216;-84
2022/08/18 03:09:14;;;;;;;3.23;2.93;;;19.40;99.90;;;;;;4998171;28;20223;-84
2022/08/18 03:11:41;;;;;;;3.13;2.67;;;19.30;99.90;;;;;;5000677;28;20184;-84
2022/08/18 03:14:07;;;;;;;4.33;2.20;;;19.30;99.90;;;;;;4981057;28;20219;-84
2022/08/18 03:16:34;;;;;;;4.00;2.50;;;19.40;99.90;;;;;;5006703;28;20226;-84
2022/08/18 03:19:00;;;;;;;8.40;3.47;;;19.30;99.90;;;;;;4977880;28;20583;-83
2022/08/18 03:21:28;;;;;;;8.07;2.77;;;19.30;99.90;;;;;;4983986;28;20218;-84
2022/08/18 03:23:55;;;;;;;3.30;2.93;;;19.30;99.90;;;;;;5013594;28;20202;-84
2022/08/18 03:26:22;;;;;;;7.53;3.70;;;19.30;99.90;;;;;;5013538;28;20186;-83
2022/08/18 03:28:49;;;;;;;5.27;3.13;;;19.40;99.90;;;;;;5013188;28;20231;-84
2022/08/18 03:31:17;;;;;;;5.77;2.87;;;19.40;99.90;;;;;;5013144;28;20589;-84
2022/08/18 03:33:44;;;;;;;5.23;3.60;;;19.40;99.90;;;;;;5000684;28;20275;-84
2022/08/18 03:36:12;;;;;;;6.67;3.53;;;19.40;99.90;;;;;;4994700;28;20243;-84
2022/08/18 03:38:41;;;;;;;4.40;3.40;;;19.40;99.90;;;;;;5012708;28;20199;-84
2022/08/18 03:41:08;;;;;;;5.40;3.30;;;19.30;99.90;;;;;;5008991;28;20215;-84
2022/08/18 03:43:35;;;;;;;5.33;3.70;;;19.30;99.90;;;;;;5004168;28;20285;-84
2022/08/18 03:46:02;;;;;;;4.13;3.43;;;19.30;99.90;;;;;;4996548;28;20239;-83
2022/08/18 03:48:28;;;;;;;9.93;3.57;;;19.30;99.90;;;;;;5008627;28;20233;-84
2022/08/18 03:50:53;;;;;;;8.27;4.13;;;19.30;99.90;;;;;;4980479;28;20183;-83
2022/08/18 03:53:19;;;;;;;7.00;3.30;;;19.40;99.90;;;;;;4962453;28;20280;-83
2022/08/18 03:55:45;;;;;;;5.10;4.13;;;19.50;99.90;;;;;;4998952;28;20215;-83
2022/08/18 03:58:14;;;;;;;5.33;4.13;;;19.50;99.90;;;;;;4986721;28;20216;-83
2022/08/18 04:00:40;;;;;;;7.10;3.13;;;19.50;99.90;;;;;;4980962;28;20215;-83
2022/08/18 04:03:06;;;;;;;2.97;2.70;;;19.50;99.90;;;;;;4976959;28;20242;-84
2022/08/18 04:05:34;;;;;;;6.10;2.77;;;19.50;99.90;;;;;;4977232;28;20180;-83
2022/08/18 04:08:01;;;;;;;6.27;2.43;;;19.50;99.90;;;;;;4980928;28;20723;-83
2022/08/18 04:10:27;;;;;;;3.10;2.07;;;19.30;99.90;;;;;;4992747;28;20207;-84
2022/08/18 04:12:53;;;;;;;2.33;2.13;;;19.30;99.90;;;;;;4985966;28;20238;-84
2022/08/18 04:15:19;;;;;;;5.67;2.50;;;19.20;99.90;;;;;;4990754;28;20221;-84
2022/08/18 04:17:45;;;;;;;4.77;2.10;;;19.20;99.90;;;;;;4986123;28;20246;-84
2022/08/18 04:20:11;;;;;;;7.40;3.43;;;19.20;99.90;;;;;;4995892;28;20680;-83
2022/08/18 04:22:38;;;;;;;4.20;2.30;;;19.30;99.90;;;;;;4995805;28;20579;-84
2022/08/18 04:25:04;;;;;;;9.10;2.30;;;19.30;99.90;;;;;;5011489;28;20625;-84
2022/08/18 04:27:29;;;;;;;9.90;1.93;;;19.30;99.90;;;;;;4988818;28;20231;-83
2022/08/18 04:29:55;;;;;;;2.33;1.70;;;19.30;99.90;;;;;;4979643;28;20176;-84
2022/08/18 04:32:22;;;;;;;3.93;2.50;;;19.30;99.90;;;;;;4980269;28;20188;-83
2022/08/18 04:34:48;;;;;;;5.07;2.37;;;19.30;99.90;;;;;;5008672;28;20299;-84
2022/08/18 04:37:15;;;;;;;2.50;2.00;;;19.30;99.90;;;;;;4979485;28;20203;-84
2022/08/18 04:39:41;;;;;;;3.97;1.80;;;19.20;99.90;;;;;;4976311;28;20203;-83
2022/08/18 04:42:07;;;;;;;7.53;2.43;;;19.20;99.90;;;;;;5004297;28;20176;-83
2022/08/18 04:44:36;;;;;;;8.43;2.30;;;19.30;99.90;;;;;;5000403;28;20239;-83
2022/08/18 04:47:03;;;;;;;3.83;2.33;;;19.20;99.90;;;;;;4996142;28;20702;-84
2022/08/18 04:49:30;;;;;;;5.53;2.37;;;19.20;99.90;;;;;;4992183;28;20702;-83
2022/08/18 04:54:42;;;;;;;5.00;2.27;;;19.30;99.90;;;;;;4995456;28;20670;-83
2022/08/18 04:57:17;;;;;;;4.60;2.47;;;19.20;99.90;;;;;;4979270;28;20218;-82
2022/08/18 04:59:45;;;;;;;7.27;2.83;;;19.30;99.90;;;;;;5010349;28;20542;-83
2022/08/18 05:02:13;;;;;;;4.80;1.77;;;19.20;99.90;;;;;;5011764;28;20231;-82
2022/08/18 05:04:41;;;;;;;5.87;2.33;;;19.30;99.90;;;;;;4995212;28;20264;-83
2022/08/18 05:07:10;;;;;;;7.33;2.33;;;19.30;99.90;;;;;;5011228;28;20298;-85
2022/08/18 05:09:37;;;;;;;8.23;2.33;;;19.30;99.90;;;;;;4986378;28;20309;-84
2022/08/18 05:12:05;;;;;;;4.57;1.93;;;19.30;99.90;;;;;;5034974;28;20643;-84
2022/08/18 05:14:32;;;;;;;5.73;2.40;;;19.40;99.90;;;;;;5007845;28;20188;-84
2022/08/18 05:16:59;;;;;;;2.67;1.63;;;19.30;99.90;;;;;;4979348;28;20714;-84
2022/08/18 05:19:25;;;;;;;1.90;1.47;;;19.20;99.90;;;;;;4991853;28;20226;-84
2022/08/18 05:21:52;;;;;;;5.47;2.20;;;19.30;99.90;;;;;;4975910;28;20586;-85
2022/08/18 05:24:20;;;;;;;10.23;2.40;;;19.30;99.90;;;;;;4991663;28;20215;-84
2022/08/18 05:26:47;;;;;;;2.37;1.70;;;19.20;99.90;;;;;;5005236;28;20204;-84
2022/08/18 05:29:14;;;;;;;2.20;1.87;;;19.20;99.90;;;;;;5012168;28;20664;-84
2022/08/18 05:31:39;;;;;;;2.70;2.07;;;19.20;99.90;;;;;;5011069;28;20210;-83
2022/08/18 05:34:05;;;;;;;4.40;1.70;;;19.30;99.90;;;;;;5011136;28;20215;-83
2022/08/18 05:36:34;;;;;;;3.57;1.67;;;19.20;99.90;;;;;;4980141;28;20575;-83
2022/08/18 05:39:34;;;;;;;2.10;1.63;;;19.20;99.90;;;;;;5003502;28;20195;-84
2022/08/18 05:42:05;;;;;;;1.77;1.53;;;19.10;99.90;;;;;;4969073;28;20191;-84
2022/08/18 05:44:36;;;;;;;4.17;1.77;;;19.20;99.90;;;;;;5004694;28;20687;-84
2022/08/18 05:47:07;;;;;;;3.50;1.80;;;19.20;99.90;;;;;;5009006;28;20223;-84
2022/08/18 05:49:34;;;;;;;5.57;1.97;;;19.20;99.90;;;;;;5012582;28;20215;-85
2022/08/18 05:52:04;;;;;;;6.87;1.77;;;19.30;99.90;;;;;;4989978;28;20562;-84
2022/08/18 05:57:24;;;;;;;3.07;1.93;;;19.30;99.90;;;;;;5008102;28;20203;-87
2022/08/18 05:59:52;;;;;;;5.97;1.90;;;19.40;99.90;;;;;;5011255;28;20179;-85
2022/08/18 06:02:27;;;;;;;3.53;1.63;;;19.30;99.90;;;;;;5009893;28;20273;-85
2022/08/18 06:04:57;;;;;;;3.43;1.97;;;19.40;99.90;;;;;;5013962;28;20219;-85
2022/08/18 06:07:34;;;;;;;4.90;2.33;;;19.40;99.90;;;;;;5012053;28;20223;-85
2022/08/18 06:10:02;;;;;;;3.37;2.13;;;19.40;99.90;;;;;;5017200;28;20222;-85
2022/08/18 06:12:35;;;;;;;3.53;1.90;;;19.40;99.90;;;;;;5014332;28;20203;-86
2022/08/18 06:15:10;;;;;;;2.97;1.90;;;19.50;99.90;;;;;;5004605;28;20267;-85
2022/08/18 06:17:45;;;;;;;4.07;2.07;;;19.50;99.90;;;;;;5014299;28;20162;-86
2022/08/18 06:20:14;;;;;;;4.33;2.30;;;19.50;99.90;;;;;;5011386;28;20269;-86
2022/08/18 06:22:57;;;;;;;3.10;1.60;;;19.50;99.90;;;;;;5016167;28;20691;-83
2022/08/18 06:25:47;;;;;;;5.07;2.53;;;19.50;99.90;;;;;;5014753;28;20246;-83
2022/08/18 06:28:15;;;;;;;2.00;1.90;;;19.60;99.90;;;;;;5014168;28;20219;-84
2022/08/18 06:30:46;;;;;;;5.33;1.77;;;19.60;99.90;;;;;;4994442;28;20216;-85
2022/08/18 06:33:30;;;;;;;1.97;1.60;;;19.70;99.90;;;;;;5008571;28;20792;-84
2022/08/18 06:36:25;;;;;;;9.83;1.73;;;19.70;99.90;;;;;;5007601;28;20543;-85
2022/08/18 06:39:22;;;;;;;2.27;1.97;;;19.70;99.90;;;;;;5000501;28;20179;-85
2022/08/18 06:41:50;;;;;;;6.47;1.63;;;19.70;99.90;;;;;;5009320;28;20225;-85
2022/08/18 06:44:33;;;;;;;2.53;2.00;;;19.80;99.90;;;;;;4979496;28;20234;-85
2022/08/18 06:47:25;;;;;;;2.87;1.60;;;19.90;99.90;;;;;;4994331;28;20239;-84
2022/08/18 06:49:56;;;;;;;4.30;2.30;;;19.90;99.90;;;;;;4994447;28;20226;-84
2022/08/18 06:52:28;;;;;;;4.17;2.27;;;20.00;99.90;;;;;;4999492;28;20671;-85
2022/08/18 06:54:59;;;;;;;3.63;1.50;;;20.10;99.90;;;;;;5013847;28;20223;-84
2022/08/18 06:57:35;;;;;;;4.20;2.00;;;20.20;99.90;;;;;;5001281;28;20215;-84
2022/08/18 07:00:22;;;;;;;3.43;1.53;;;20.40;99.90;;;;;;5007078;28;20175;-85
2022/08/18 07:03:03;;;;;;;3.50;1.40;;;20.60;99.90;;;;;;5013521;28;20234;-84
2022/08/18 07:05:31;;;;;;;2.77;1.67;;;20.60;99.90;;;;;;5011268;28;20224;-84
2022/08/18 07:08:11;;;;;;;2.90;1.50;;;20.80;99.90;;;;;;4994350;28;20684;-84
2022/08/18 07:10:49;;;;;;;9.67;1.50;;;20.90;99.90;;;;;;4995390;28;20219;-84
2022/08/18 07:13:27;;;;;;;3.23;1.97;;;21.10;99.90;;;;;;4994357;28;20235;-84
2022/08/18 07:16:14;;;;;;;2.93;1.83;;;21.00;99.90;;;;;;5006825;28;20674;-83
2022/08/18 07:18:40;;;;;;;6.20;1.73;;;21.10;99.90;;;;;;4995045;28;20747;-84
2022/08/18 07:21:06;;;;;;;2.17;1.50;;;21.10;99.90;;;;;;4985030;28;20206;-84
2022/08/18 07:23:37;;;;;;;2.10;1.90;;;21.20;99.90;;;;;;4997457;28;20176;-85
2022/08/18 07:26:11;;;;;;;2.87;1.40;;;21.40;99.90;;;;;;5004977;28;20203;-84
2022/08/18 07:28:41;;;;;;;1.70;1.60;;;21.40;99.90;;;;;;5013513;28;20226;-84
2022/08/18 07:31:25;;;;;;;1.33;1.20;;;21.30;99.90;;;;;;5009457;28;20211;-84
2022/08/18 07:34:07;;;;;;;5.30;1.40;;;20.90;99.90;;;;;;5011064;28;20238;-84
2022/08/18 07:36:40;;;;;;;1.60;1.50;;;21.10;99.90;;;;;;5012983;28;20211;-84
2022/08/18 07:39:21;;;;;;;3.90;1.53;;;21.30;99.90;;;;;;5006303;28;20658;-85
2022/08/18 07:41:56;;;;;;;2.50;1.50;;;21.10;99.90;;;;;;5006137;28;20187;-85
2022/08/18 07:44:43;;;;;;;1.87;1.30;;;20.90;99.90;;;;;;5000732;28;20283;-85
2022/08/18 07:47:37;;;;;;;1.37;1.13;;;21.00;99.90;;;;;;5012842;28;20605;-84
2022/08/18 07:50:05;;;;;;;1.33;1.23;;;20.90;99.90;;;;;;5009512;28;20208;-85
2022/08/18 07:52:42;;;;;;;1.73;1.17;;;21.60;99.90;;;;;;4998228;28;20278;-88
2022/08/18 07:55:35;;;;;;;1.03;1.03;;;22.30;99.90;;;;;;5009578;28;20204;-85
2022/08/18 07:58:23;;;;;;;1.03;0.93;;;22.10;99.90;;;;;;4977143;28;20220;-85
2022/08/18 08:01:03;;;;;;;2.93;1.10;;;21.80;99.90;;;;;;5012574;28;20261;-84
2022/08/18 08:04:02;;;;;;;1.27;0.80;;;21.90;99.90;;;;;;4993539;28;20216;-85
2022/08/18 08:07:03;;;;;;;2.03;1.10;;;23.60;99.90;;;;;;4993377;28;20212;-85
2022/08/18 08:09:45;;;;;;;2.33;1.20;;;25.10;99.90;;;;;;4990901;28;20695;-84
2022/08/18 08:12:20;;;;;;;1.23;1.13;;;25.40;99.90;;;;;;4994185;28;20171;-84
2022/08/18 08:14:50;;;;;;;10.65;1.10;;;24.90;99.90;;;;;;5010894;28;20635;-85
2022/08/18 08:17:42;;;;;;;4.25;1.20;;;24.90;99.90;;;;;;4994204;28;20239;-87
2022/08/18 08:20:20;;;;;;;1.60;1.10;;;26.30;99.90;;;;;;5008729;28;20301;-86
2022/08/18 08:23:16;;;;;;;1.63;1.20;;;27.70;99.90;;;;;;5013638;28;20219;-87
2022/08/18 08:25:55;;;;;;;3.35;1.67;;;28.80;99.90;;;;;;5003290;28;20714;-85
2022/08/18 08:28:38;;;;;;;3.67;0.98;;;29.20;99.90;;;;;;5012272;28;20229;-86
2022/08/18 08:31:13;;;;;;;2.90;1.10;;;29.10;99.90;;;;;;5003371;28;20215;-86
2022/08/18 08:33:45;;;;;;;1.48;0.80;;;27.40;99.90;;;;;;4992802;28;20722;-87
2022/08/18 08:36:16;;;;;;;3.85;0.80;;;26.60;99.90;;;;;;5003787;28;20574;-84
2022/08/18 08:39:00;;;;;;;3.63;1.00;;;25.70;99.90;;;;;;5004389;28;20179;-86
2022/08/18 08:41:45;;;;;;;1.88;0.90;;;25.70;99.90;;;;;;5011959;28;20911;-85
2022/08/18 08:44:35;;;;;;;3.35;1.08;;;26.80;99.90;;;;;;5000148;28;20227;-86
2022/08/18 08:47:06;;;;;;;3.95;0.90;;;26.60;99.90;;;;;;5023721;28;20210;-86
2022/08/18 08:49:57;;;;;;;1.17;1.08;;;26.60;99.90;;;;;;5016182;28;20732;-86
2022/08/18 08:53:01;;;;;;;4.72;1.15;;;27.50;99.90;;;;;;5013106;28;20215;-86
2022/08/18 08:55:33;;;;;;;1.20;0.90;;;27.70;99.90;;;;;;4958825;28;20207;-86
2022/08/18 08:58:34;;;;;;;1.63;1.20;;;26.10;99.90;;;;;;5011551;28;20252;-86
2022/08/18 09:01:01;;;;;;;2.10;0.90;;;25.60;99.90;;;;;;4984572;28;20224;-86
2022/08/18 09:03:45;;;;;;;3.17;0.88;;;27.00;99.90;;;;;;4986191;28;20214;-85
2022/08/18 09:06:29;;;;;;;2.05;1.00;;;26.00;99.90;;;;;;5012048;28;20164;-86
2022/08/18 09:09:15;;;;;;;1.70;0.88;;;25.20;99.90;;;;;;5011849;28;20206;-85
2022/08/18 09:12:08;;;;;;;2.03;0.95;;;24.90;99.90;;;;;;5009089;28;20180;-86
2022/08/18 09:14:55;;;;;;;0.98;0.93;;;25.60;99.90;;;;;;4992387;28;20212;-86
2022/08/18 09:17:42;;;;;;;1.33;0.77;;;25.60;99.90;;;;;;5001128;28;20211;-86
2022/08/18 09:20:28;;;;;;;0.70;0.60;;;25.90;99.90;;;;;;5002910;28;20227;-86
2022/08/18 09:23:09;;;;;;;2.40;1.02;;;24.90;99.90;;;;;;4972078;28;20228;-86
2022/08/18 09:25:38;;;;;;;1.00;0.80;;;23.90;99.90;;;;;;5011942;28;20233;-86
2022/08/18 09:28:41;;;;;;;0.70;0.70;;;23.10;99.90;;;;;;5011797;28;20227;-86
2022/08/18 09:31:06;;;;;;;3.10;0.98;;;22.90;99.90;;;;;;5011713;28;20199;-86
2022/08/18 09:33:52;;;;;;;1.92;0.90;;;23.20;99.90;;;;;;5011585;28;20223;-86
2022/08/18 09:36:34;;;;;;;5.25;1.02;;;23.70;99.90;;;;;;5011508;28;20257;-86
2022/08/18 09:42:32;;;;;;;0.70;0.70;;;23.80;99.90;;;;;;5020092;28;20187;-86
2022/08/18 09:45:03;;;;;;;1.02;0.93;;;23.90;99.90;;;;;;5003696;28;20219;-86
2022/08/18 09:47:29;;;;;;;3.83;0.93;;;23.50;99.90;;;;;;5001021;28;20265;-85
2022/08/18 09:50:15;;;;;;;1.10;0.90;;;23.40;99.90;;;;;;5011402;28;20203;-86
2022/08/18 09:52:41;;;;;;;2.65;1.00;;;24.00;99.90;;;;;;5011724;28;20217;-85
2022/08/18 09:55:26;;;;;;;4.93;0.98;;;24.80;99.90;;;;;;5015332;28;20215;-85
2022/08/18 09:58:18;;;;;;;0.80;0.80;;;25.10;99.90;;;;;;5015356;28;20262;-85
2022/08/18 10:01:05;;;;;;;1.02;0.70;;;24.50;99.90;;;;;;5013801;28;20211;-85
2022/08/18 10:03:31;;;;;;;3.83;0.80;;;25.10;99.90;;;;;;4982300;28;20219;-85
2022/08/18 10:06:11;;;;;;;0.90;0.68;;;26.20;99.90;;;;;;4997352;28;20179;-86
2022/08/18 10:08:58;;;;;;;1.92;0.68;;;26.90;99.90;;;;;;4998368;28;20706;-85
2022/08/18 10:11:38;;;;;;;1.42;1.05;;;27.90;99.90;;;;;;4995840;28;20199;-86
2022/08/18 10:14:36;;;;;;;0.70;0.70;;;27.70;99.90;;;;;;5007329;28;20222;-85
2022/08/18 10:17:40;;;;;;;1.15;0.68;;;26.70;99.90;;;;;;5014974;28;20230;-85
2022/08/18 10:20:37;;;;;;;1.00;0.80;;;26.70;99.90;;;;;;5014265;28;20219;-85
2022/08/18 10:23:06;;;;;;;1.10;0.70;;;26.90;99.90;;;;;;5014851;28;20269;-85
2022/08/18 10:25:39;;;;;;;1.30;1.20;;;25.90;99.90;;;;;;4981742;28;20211;-87
2022/08/18 10:28:09;;;;;;;1.67;0.70;;;25.90;99.90;;;;;;5006428;28;20312;-86
2022/08/18 10:30:35;;;;;;;0.85;0.70;;;25.40;99.90;;;;;;5014533;28;20269;-86
2022/08/18 10:33:09;;;;;;;0.70;0.70;;;25.20;99.90;;;;;;5014899;28;20187;-86
2022/08/18 10:35:35;;;;;;;1.45;0.80;;;25.20;99.90;;;;;;5015343;28;20163;-87
2022/08/18 10:38:27;;;;;;;1.95;0.77;;;24.70;99.90;;;;;;5011488;28;20216;-85
2022/08/18 10:41:22;;;;;;;0.80;0.80;;;23.70;99.90;;;;;;4996020;28;20208;-86
2022/08/18 10:43:51;;;;;;;0.82;0.80;;;23.20;99.90;;;;;;4995849;28;20585;-86
2022/08/18 10:46:23;;;;;;;2.95;0.93;;;23.40;99.90;;;;;;4969119;28;20215;-86
2022/08/18 10:48:59;;;;;;;1.13;0.77;;;24.00;99.90;;;;;;4997995;28;20242;-85
2022/08/18 10:51:47;;;;;;;1.60;0.88;;;24.10;99.90;;;;;;4997988;28;20257;-84
2022/08/18 10:54:42;;;;;;;1.27;1.05;;;24.20;99.90;;;;;;4995025;28;20660;-85
2022/08/18 10:57:30;;;;;;;2.10;0.93;;;23.70;99.90;;;;;;4994116;28;20190;-85
2022/08/18 11:00:16;;;;;;;2.03;1.10;;;25.10;99.90;;;;;;4988094;28;20183;-85
2022/08/18 11:03:09;;;;;;;1.00;0.90;;;26.50;99.90;;;;;;4994227;28;20257;-85
2022/08/18 11:05:38;;;;;;;1.70;0.90;;;26.90;99.90;;;;;;4997138;28;20223;-85
2022/08/18 11:08:11;;;;;;;1.17;0.90;;;26.80;99.90;;;;;;4969500;28;20215;-86
2022/08/18 11:10:47;;;;;;;2.15;1.10;;;25.50;99.90;;;;;;4990500;28;20230;-84
2022/08/18 11:13:24;;;;;;;1.45;1.00;;;26.10;99.90;;;;;;4997383;28;20230;-84
2022/08/18 11:16:13;;;;;;;0.98;0.90;;;26.50;99.90;;;;;;4997115;28;20273;-84
2022/08/18 11:18:55;;;;;;;1.67;0.90;;;26.50;99.90;;;;;;5004428;28;20560;-84
2022/08/18 11:21:21;;;;;;;0.82;0.80;;;26.30;99.90;;;;;;4995246;28;20290;-84
2022/08/18 11:24:19;;;;;;;1.30;1.20;;;26.50;99.90;;;;;;4997420;28;20707;-85
2022/08/18 11:26:47;;;;;;;1.00;0.90;;;26.10;99.90;;;;;;4978102;28;20208;-84
2022/08/18 11:29:22;;;;;;;2.53;1.20;;;26.30;99.90;;;;;;4977700;28;20270;-84
2022/08/18 11:31:52;;;;;;;1.17;0.90;;;26.10;99.90;;;;;;5004148;28;20218;-85
2022/08/18 11:34:22;;;;;;;3.45;1.17;;;25.80;99.90;;;;;;4996494;28;20200;-85
2022/08/18 11:37:00;;;;;;;1.40;0.90;;;25.80;99.90;;;;;;4997107;28;20306;-85
2022/08/18 11:39:27;;;;;;;0.80;0.80;;;25.90;99.90;;;;;;4992962;28;20203;-85
2022/08/18 11:41:54;;;;;;;1.02;0.90;;;25.70;99.90;;;;;;4993409;28;20716;-85
2022/08/18 11:44:23;;;;;;;1.17;0.85;;;25.90;99.90;;;;;;4982569;28;20580;-86
2022/08/18 11:46:54;;;;;;;1.40;0.80;;;24.90;99.90;;;;;;4993546;28;20227;-86
2022/08/18 11:49:32;;;;;;;3.58;1.00;;;24.90;99.90;;;;;;4997401;28;20233;-87
2022/08/18 11:52:05;;;;;;;1.20;1.10;;;25.10;99.90;;;;;;5005812;28;20306;-88
2022/08/18 11:54:45;;;;;;;1.77;1.30;;;25.10;99.90;;;;;;4997467;28;20211;-88
2022/08/18 11:57:28;;;;;;;1.27;1.00;;;25.20;99.90;;;;;;4993768;28;20168;-87
2022/08/18 11:59:55;;;;;;;2.10;1.27;;;25.30;99.90;;;;;;4995177;28;20207;-87
2022/08/18 12:02:24;;;;;;;1.48;0.90;;;25.30;99.90;;;;;;4983473;28;20188;-87
2022/08/18 12:04:59;;;;;;;1.80;1.30;;;24.90;99.90;;;;;;5013040;28;20215;-88
2022/08/18 12:07:32;;;;;;;1.15;1.05;;;24.70;99.90;;;;;;5013125;28;20215;-87
2022/08/18 12:10:24;;;;;;;1.95;1.40;;;25.00;99.90;;;;;;5013137;28;20576;-87
2022/08/18 12:12:52;;;;;;;6.30;1.20;;;25.10;99.90;;;;;;4998007;28;20212;-88
2022/08/18 12:15:17;;;;;;;1.95;1.02;;;24.40;99.90;;;;;;4980631;28;20756;-88
2022/08/18 12:17:44;;;;;;;3.38;0.93;;;24.60;99.90;;;;;;4993377;28;20270;-87
2022/08/18 12:20:12;;;;;;;1.85;1.27;;;24.50;99.90;;;;;;5001520;28;20310;-87
2022/08/18 12:22:41;;;;;;;1.85;1.35;;;24.50;99.90;;;;;;5012943;28;20219;-89
2022/08/18 12:25:12;;;;;;;1.17;1.08;;;24.10;99.90;;;;;;5013998;28;20305;-87
2022/08/18 12:27:38;;;;;;;1.60;1.00;;;23.90;99.90;;;;;;4999339;28;20214;-86
2022/08/18 12:30:05;;;;;;;2.53;1.15;;;24.00;99.90;;;;;;5012682;28;20242;-87
2022/08/18 12:32:33;;;;;;;1.20;1.10;;;24.70;99.90;;;;;;4996962;28;20180;-87
2022/08/18 12:34:59;;;;;;;2.80;1.20;;;25.10;99.90;;;;;;5012789;28;20301;-87
2022/08/18 12:37:27;;;;;;;1.25;1.10;;;25.20;99.90;;;;;;4996331;28;20210;-87
2022/08/18 12:39:54;;;;;;;3.30;1.15;;;25.00;99.90;;;;;;4996404;28;20211;-88
2022/08/18 12:42:20;;;;;;;1.45;1.00;;;24.30;99.90;;;;;;5012744;28;20545;-87
2022/08/18 12:44:47;;;;;;;1.95;1.50;;;24.10;99.90;;;;;;4992522;28;20584;-87
2022/08/18 12:47:20;;;;;;;1.25;0.98;;;24.00;99.90;;;;;;5008581;28;20263;-87
2022/08/18 12:49:46;;;;;;;1.60;1.15;;;23.90;99.90;;;;;;4992916;28;20208;-87
2022/08/18 12:52:12;;;;;;;1.42;1.10;;;24.50;99.90;;;;;;4984908;28;20641;-87
2022/08/18 12:54:38;;;;;;;1.30;1.20;;;23.90;99.90;;;;;;5012090;28;20211;-87
2022/08/18 12:57:08;;;;;;;1.33;1.10;;;23.60;99.90;;;;;;4994533;28;20191;-87
2022/08/18 12:59:35;;;;;;;1.30;1.20;;;23.60;99.90;;;;;;5008351;28;20172;-87
2022/08/18 13:02:01;;;;;;;1.20;1.00;;;24.40;99.90;;;;;;4996041;28;20203;-87
2022/08/18 13:04:27;;;;;;;2.78;1.35;;;24.40;99.90;;;;;;4979248;28;20216;-87
2022/08/18 13:06:56;;;;;;;1.30;1.20;;;24.80;99.90;;;;;;4976016;28;20681;-88
2022/08/18 13:09:22;;;;;;;1.73;1.20;;;25.10;99.90;;;;;;5002180;28;20214;-86
2022/08/18 13:11:49;;;;;;;2.58;1.30;;;24.90;99.90;;;;;;5012591;28;20632;-87
2022/08/18 13:14:15;;;;;;;1.55;1.45;;;24.70;99.90;;;;;;5011583;28;20702;-87
2022/08/18 13:16:43;;;;;;;2.40;1.27;;;24.00;99.90;;;;;;5002143;28;20207;-87
2022/08/18 13:19:10;;;;;;;2.15;1.65;;;23.90;99.90;;;;;;5012019;28;20586;-87
2022/08/18 13:21:36;;;;;;;2.88;1.40;;;24.00;99.90;;;;;;4995707;28;20211;-87
2022/08/18 13:24:03;;;;;;;1.23;1.13;;;24.00;99.90;;;;;;5012032;28;20180;-89
2022/08/18 13:26:32;;;;;;;1.38;1.25;;;24.30;99.90;;;;;;4996147;28;20187;-88
2022/08/18 13:28:58;;;;;;;3.10;1.20;;;24.30;99.90;;;;;;5014670;28;20211;-86